createdAt,value
2022-12-20T00:01:54.834Z,70.61
2022-12-20T00:04:23.083Z,70.58
2022-12-20T00:06:51.151Z,70.61
2022-12-20T00:09:19.253Z,70.86
2022-12-20T00:11:47.299Z,70.40
2022-12-20T00:14:15.451Z,70.78
2022-12-20T00:16:43.825Z,70.72
2022-12-20T00:19:12.393Z,70.71
2022-12-20T00:21:40.483Z,70.83
2022-12-20T00:24:10.087Z,70.78
2022-12-20T00:26:39.187Z,70.70
2022-12-20T00:29:07.676Z,70.61
2022-12-20T00:31:35.928Z,70.73
2022-12-20T00:34:04.137Z,70.73
2022-12-20T00:36:33.502Z,70.65
2022-12-20T00:39:02.675Z,70.32
2022-12-20T00:41:33.000Z,70.53
2022-12-20T00:44:02.268Z,70.65
2022-12-20T00:46:32.179Z,70.40
2022-12-20T00:49:00.715Z,70.67
2022-12-20T00:51:30.641Z,70.42
2022-12-20T00:53:58.802Z,70.49
2022-12-20T00:56:27.262Z,70.38
2022-12-20T00:58:59.770Z,70.33
2022-12-20T01:01:31.192Z,70.30
2022-12-20T01:04:00.034Z,70.46
2022-12-20T01:06:29.625Z,70.69
2022-12-20T01:08:58.702Z,70.46
2022-12-20T01:11:30.724Z,70.38
2022-12-20T01:14:09.000Z,70.57
2022-12-20T01:16:45.594Z,70.46
2022-12-20T01:19:17.824Z,70.37
2022-12-20T01:21:47.214Z,70.24
2022-12-20T01:24:20.296Z,70.31
2022-12-20T01:26:48.512Z,70.28
2022-12-20T01:29:16.661Z,70.21
2022-12-20T01:31:46.215Z,70.41
2022-12-20T01:34:14.379Z,70.52
2022-12-20T01:36:42.713Z,70.48
2022-12-20T01:39:14.705Z,70.40
2022-12-20T01:41:45.488Z,70.46
2022-12-20T01:44:19.382Z,70.23
2022-12-20T01:46:49.791Z,70.40
2022-12-20T01:49:22.928Z,70.41
2022-12-20T01:52:07.086Z,70.45
2022-12-20T01:54:44.988Z,70.50
2022-12-20T01:57:18.588Z,70.28
2022-12-20T01:59:50.544Z,70.25
2022-12-20T02:02:18.906Z,70.34
2022-12-20T02:04:47.309Z,70.30
2022-12-20T02:07:20.305Z,70.31
2022-12-20T02:09:49.080Z,70.48
2022-12-20T02:12:25.477Z,70.72
2022-12-20T02:15:05.610Z,70.91
2022-12-20T02:17:46.556Z,70.70
2022-12-20T02:20:54.311Z,70.93
2022-12-20T02:23:43.119Z,71.00
2022-12-20T02:26:17.112Z,71.28
2022-12-20T02:29:06.712Z,71.26
2022-12-20T02:31:40.368Z,71.35
2022-12-20T02:34:10.629Z,71.35
2022-12-20T02:36:39.815Z,71.63
2022-12-20T02:39:13.038Z,71.62
2022-12-20T02:41:48.776Z,71.78
2022-12-20T02:44:40.278Z,71.64
2022-12-20T02:47:12.768Z,71.76
2022-12-20T02:49:43.186Z,71.99
2022-12-20T02:52:13.956Z,72.06
2022-12-20T02:54:42.170Z,72.00
2022-12-20T02:58:10.252Z,72.04
2022-12-20T03:00:43.888Z,72.35
2022-12-20T03:03:24.279Z,72.27
2022-12-20T03:05:56.091Z,72.51
2022-12-20T03:08:24.853Z,72.44
2022-12-20T03:10:54.457Z,72.52
2022-12-20T03:13:25.085Z,72.46
2022-12-20T03:15:58.146Z,72.71
2022-12-20T03:18:26.380Z,72.99
2022-12-20T03:20:54.541Z,72.67
2022-12-20T03:23:22.745Z,72.71
2022-12-20T03:25:51.224Z,73.02
2022-12-20T03:28:36.505Z,73.11
2022-12-20T03:31:06.245Z,73.06
2022-12-20T03:33:39.720Z,72.89
2022-12-20T03:36:08.636Z,73.09
2022-12-20T03:38:37.498Z,73.20
2022-12-20T03:41:06.904Z,73.23
2022-12-20T03:43:35.015Z,73.38
2022-12-20T03:46:03.912Z,73.34
2022-12-20T03:48:35.598Z,73.31
2022-12-20T03:51:03.765Z,73.26
2022-12-20T03:53:31.899Z,73.19
2022-12-20T03:55:59.987Z,73.25
2022-12-20T03:58:28.189Z,73.38
2022-12-20T04:00:58.198Z,73.55
2022-12-20T04:03:41.168Z,73.27
2022-12-20T04:06:09.456Z,73.33
2022-12-20T04:08:37.785Z,73.38
2022-12-20T04:11:18.074Z,73.08
2022-12-20T04:14:09.456Z,73.15
2022-12-20T04:16:38.797Z,73.18
2022-12-20T04:19:07.318Z,73.38
2022-12-20T04:21:39.943Z,73.37
2022-12-20T04:24:08.836Z,73.12
2022-12-20T04:26:42.055Z,72.96
2022-12-20T04:29:10.806Z,73.02
2022-12-20T04:31:39.198Z,73.09
2022-12-20T04:34:07.269Z,73.00
2022-12-20T04:36:35.737Z,73.12
2022-12-20T04:39:06.157Z,72.98
2022-12-20T04:41:42.542Z,72.94
2022-12-20T04:44:12.359Z,73.04
2022-12-20T04:46:40.531Z,72.96
2022-12-20T04:49:12.361Z,73.04
2022-12-20T04:51:42.176Z,72.94
2022-12-20T04:54:12.391Z,73.07
2022-12-20T04:56:45.242Z,72.90
2022-12-20T04:59:16.969Z,72.93
2022-12-20T05:01:47.040Z,73.14
2022-12-20T05:04:24.040Z,73.15
2022-12-20T05:06:52.144Z,73.21
2022-12-20T05:09:20.996Z,73.15
2022-12-20T05:11:50.194Z,73.42
2022-12-20T05:14:18.544Z,73.28
2022-12-20T05:16:46.767Z,73.07
2022-12-20T05:19:14.873Z,73.17
2022-12-20T05:22:01.944Z,73.29
2022-12-20T05:24:49.748Z,73.21
2022-12-20T05:27:28.656Z,73.37
2022-12-20T05:29:56.751Z,73.19
2022-12-20T05:32:25.105Z,72.97
2022-12-20T05:34:54.236Z,73.15
2022-12-20T05:37:22.628Z,73.17
2022-12-20T05:39:51.080Z,73.24
2022-12-20T05:42:21.825Z,73.20
2022-12-20T05:44:51.740Z,73.11
2022-12-20T05:47:20.532Z,73.15
2022-12-20T05:49:49.007Z,73.07
2022-12-20T05:52:17.109Z,73.18
2022-12-20T05:54:45.144Z,73.15
2022-12-20T05:57:16.550Z,73.04
2022-12-20T05:59:45.305Z,73.15
2022-12-20T06:02:18.046Z,72.92
2022-12-20T06:04:48.810Z,72.82
2022-12-20T06:07:19.852Z,72.67
2022-12-20T06:09:51.002Z,72.91
2022-12-20T06:12:21.812Z,73.13
2022-12-20T06:14:50.017Z,72.78
2022-12-20T06:17:20.224Z,72.94
2022-12-20T06:19:48.310Z,72.78
2022-12-20T06:22:18.281Z,72.81
2022-12-20T06:24:50.456Z,72.80
2022-12-20T06:27:23.153Z,72.88
2022-12-20T06:30:00.028Z,72.80
2022-12-20T06:32:35.085Z,72.59
2022-12-20T06:35:03.287Z,72.62
2022-12-20T06:37:32.525Z,72.68
2022-12-20T06:40:00.644Z,72.37
2022-12-20T06:42:28.706Z,72.26
2022-12-20T06:44:56.805Z,72.43
2022-12-20T06:47:25.017Z,72.42
2022-12-20T06:49:53.113Z,72.44
2022-12-20T06:52:24.590Z,72.31
2022-12-20T06:54:55.953Z,72.31
2022-12-20T06:57:24.609Z,72.23
2022-12-20T06:59:53.442Z,72.23
2022-12-20T07:02:21.593Z,72.23
2022-12-20T07:04:49.825Z,72.07
2022-12-20T07:07:17.997Z,72.26
2022-12-20T07:09:46.053Z,72.33
2022-12-20T07:12:14.119Z,72.23
2022-12-20T07:14:42.389Z,72.25
2022-12-20T07:17:10.704Z,72.10
2022-12-20T07:19:38.924Z,71.96
2022-12-20T07:22:07.204Z,72.00
2022-12-20T07:24:35.291Z,72.10
2022-12-20T07:27:03.456Z,72.02
2022-12-20T07:29:31.551Z,71.84
2022-12-20T07:31:59.756Z,71.83
2022-12-20T07:34:27.845Z,71.71
2022-12-20T07:36:55.886Z,71.81
2022-12-20T07:39:24.656Z,71.86
2022-12-20T07:41:56.223Z,71.69
2022-12-20T07:44:24.389Z,71.56
2022-12-20T07:46:53.044Z,71.38
2022-12-20T07:49:22.311Z,71.33
2022-12-20T07:51:54.273Z,71.09
2022-12-20T07:54:28.934Z,71.16
2022-12-20T07:57:04.804Z,71.04
2022-12-20T07:59:42.270Z,71.13
2022-12-20T08:02:17.842Z,71.14
2022-12-20T08:04:47.047Z,71.04
2022-12-20T08:07:15.514Z,70.33
2022-12-20T08:09:45.549Z,70.58
2022-12-20T08:12:17.935Z,71.10
2022-12-20T08:14:46.304Z,70.46
2022-12-20T08:17:14.624Z,70.69
2022-12-20T08:19:42.735Z,70.71
2022-12-20T08:22:11.902Z,70.51
2022-12-20T08:24:39.936Z,70.58
2022-12-20T08:27:08.898Z,70.25
2022-12-20T08:29:36.983Z,70.12
2022-12-20T08:32:05.099Z,69.94
2022-12-20T08:34:33.392Z,70.00
2022-12-20T08:37:01.471Z,69.61
2022-12-20T08:39:29.500Z,69.86
2022-12-20T08:41:57.521Z,70.02
2022-12-20T08:44:25.762Z,70.00
2022-12-20T08:46:54.483Z,69.56
2022-12-20T08:49:22.524Z,69.76
2022-12-20T08:51:50.677Z,69.64
2022-12-20T08:54:18.755Z,69.67
2022-12-20T08:56:46.807Z,69.70
2022-12-20T08:59:15.037Z,69.43
2022-12-20T09:01:43.193Z,69.25
2022-12-20T09:04:12.471Z,68.97
2022-12-20T09:06:40.682Z,69.03
2022-12-20T09:09:08.733Z,68.89
2022-12-20T09:11:37.054Z,69.14
2022-12-20T09:14:05.160Z,69.12
2022-12-20T09:16:34.039Z,68.99
2022-12-20T09:19:05.854Z,69.14
2022-12-20T09:21:35.413Z,68.94
2022-12-20T09:24:03.625Z,68.74
2022-12-20T09:26:32.527Z,68.88
2022-12-20T09:29:02.282Z,68.91
2022-12-20T09:31:30.418Z,68.69
2022-12-20T09:34:01.134Z,68.63
2022-12-20T09:36:30.596Z,68.15
2022-12-20T09:38:58.681Z,67.98
2022-12-20T09:41:26.650Z,67.35
2022-12-20T09:43:56.232Z,67.03
2022-12-20T09:46:26.076Z,67.20
2022-12-20T09:48:54.750Z,67.47
2022-12-20T09:51:41.825Z,67.28
2022-12-20T09:54:18.697Z,66.37
2022-12-20T09:57:05.631Z,66.98
2022-12-20T09:59:39.750Z,66.66
2022-12-20T10:02:53.852Z,67.01
2022-12-20T10:05:01.701Z,66.75
2022-12-20T10:07:47.449Z,65.89
2022-12-20T10:10:37.352Z,66.76
2022-12-20T10:13:20.780Z,66.57
2022-12-20T10:16:00.458Z,66.41
2022-12-20T10:19:07.058Z,66.36
2022-12-20T10:21:37.771Z,66.35
2022-12-20T10:24:21.150Z,66.27
2022-12-20T10:26:51.429Z,66.04
2022-12-20T10:29:21.364Z,66.42
2022-12-20T10:32:00.987Z,65.93
2022-12-20T10:34:36.765Z,66.00
2022-12-20T10:37:12.987Z,65.81
2022-12-20T10:39:44.050Z,65.84
2022-12-20T10:42:31.935Z,65.81
2022-12-20T10:45:00.142Z,65.83
2022-12-20T10:47:33.897Z,66.38
2022-12-20T10:50:22.771Z,66.16
2022-12-20T10:53:25.220Z,66.21
2022-12-20T10:55:54.685Z,66.21
2022-12-20T10:58:35.633Z,66.18
2022-12-20T11:01:16.167Z,66.18
2022-12-20T11:04:00.340Z,65.99
2022-12-20T11:06:41.552Z,66.26
2022-12-20T11:09:37.806Z,65.79
2022-12-20T11:12:08.888Z,66.24
2022-12-20T11:14:39.551Z,66.39
2022-12-20T11:17:36.762Z,66.42
2022-12-20T11:20:23.869Z,66.45
2022-12-20T11:23:06.907Z,66.44
2022-12-20T11:25:34.855Z,65.99
2022-12-20T11:28:25.614Z,66.22
2022-12-20T11:31:15.547Z,66.83
2022-12-20T11:34:14.681Z,66.43
2022-12-20T11:37:07.865Z,66.54
2022-12-20T11:39:47.763Z,66.63
2022-12-20T11:42:21.801Z,66.14
2022-12-20T11:45:09.866Z,66.66
2022-12-20T11:48:02.770Z,66.68
2022-12-20T11:50:42.688Z,66.39
2022-12-20T11:53:27.009Z,66.52
2022-12-20T11:55:59.937Z,66.61
2022-12-20T11:58:41.431Z,66.59
2022-12-20T12:01:17.371Z,66.82
2022-12-20T12:04:09.191Z,66.59
2022-12-20T12:06:54.554Z,66.71
2022-12-20T12:09:33.603Z,66.36
2022-12-20T12:12:12.534Z,66.87
2022-12-20T12:14:49.410Z,66.90
2022-12-20T12:17:27.816Z,66.86
2022-12-20T12:20:01.030Z,66.92
2022-12-20T12:22:35.165Z,66.92
2022-12-20T12:25:06.881Z,66.91
2022-12-20T12:27:35.366Z,66.78
2022-12-20T12:30:03.540Z,66.68
2022-12-20T12:32:43.983Z,66.38
2022-12-20T12:35:47.413Z,66.16
2022-12-20T12:38:44.004Z,66.42
2022-12-20T12:41:30.858Z,66.50
2022-12-20T12:44:18.818Z,66.57
2022-12-20T12:46:53.319Z,66.71
2022-12-20T12:49:26.438Z,66.73
2022-12-20T12:51:58.925Z,66.68
2022-12-20T12:54:40.376Z,66.91
2022-12-20T12:57:15.002Z,66.39
2022-12-20T12:59:47.360Z,66.33
2022-12-20T13:02:15.800Z,66.20
2022-12-20T13:05:25.962Z,66.29
2022-12-20T13:07:55.185Z,66.29
2022-12-20T13:10:29.799Z,66.80
2022-12-20T13:12:59.847Z,66.68
2022-12-20T13:15:27.813Z,66.61
2022-12-20T13:18:00.891Z,66.85
2022-12-20T13:20:32.136Z,66.70
2022-12-20T13:23:09.529Z,67.26
2022-12-20T13:25:44.770Z,67.37
2022-12-20T13:28:16.850Z,66.95
2022-12-20T13:31:10.064Z,67.21
2022-12-20T13:33:41.985Z,67.29
2022-12-20T13:36:09.862Z,67.33
2022-12-20T13:38:47.204Z,67.52
2022-12-20T13:41:59.881Z,67.37
2022-12-20T13:44:39.977Z,67.51
2022-12-20T13:47:23.829Z,67.50
2022-12-20T13:49:52.825Z,67.43
2022-12-20T13:52:34.309Z,67.48
2022-12-20T13:55:16.331Z,67.72
2022-12-20T13:57:46.151Z,67.61
2022-12-20T14:00:18.724Z,67.48
2022-12-20T14:02:47.373Z,67.74
2022-12-20T14:05:26.562Z,67.60
2022-12-20T14:08:07.727Z,67.52
2022-12-20T14:10:36.360Z,67.55
2022-12-20T14:13:26.985Z,67.82
2022-12-20T14:15:56.368Z,67.66
2022-12-20T14:18:26.186Z,67.50
2022-12-20T14:21:05.524Z,67.89
2022-12-20T14:23:39.828Z,67.56
2022-12-20T14:26:13.320Z,67.72
2022-12-20T14:28:52.325Z,67.92
2022-12-20T14:31:42.836Z,68.03
2022-12-20T14:34:10.746Z,67.96
2022-12-20T14:36:43.997Z,67.95
2022-12-20T14:39:27.443Z,68.05
2022-12-20T14:42:01.350Z,68.05
2022-12-20T14:44:31.364Z,68.27
2022-12-20T14:47:26.605Z,68.39
2022-12-20T14:50:00.482Z,68.18
2022-12-20T14:52:39.119Z,68.26
2022-12-20T14:55:25.723Z,68.10
2022-12-20T14:57:57.910Z,68.18
2022-12-20T15:00:29.798Z,67.86
2022-12-20T15:03:01.274Z,68.36
2022-12-20T15:05:35.931Z,68.16
2022-12-20T15:08:19.621Z,68.46
2022-12-20T15:10:50.234Z,68.33
2022-12-20T15:13:21.847Z,68.42
2022-12-20T15:15:50.369Z,68.43
2022-12-20T15:18:20.646Z,68.32
2022-12-20T15:21:00.495Z,68.30
2022-12-20T15:23:28.908Z,68.57
2022-12-20T15:25:57.007Z,68.65
2022-12-20T15:28:26.882Z,68.43
2022-12-20T15:30:55.534Z,68.50
2022-12-20T15:33:29.132Z,68.71
2022-12-20T15:35:57.811Z,68.66
2022-12-20T15:38:54.701Z,68.73
2022-12-20T15:41:34.638Z,68.63
2022-12-20T15:44:10.995Z,68.70
2022-12-20T15:46:39.026Z,68.62
2022-12-20T15:49:09.355Z,68.73
2022-12-20T15:51:40.560Z,68.73
2022-12-20T15:54:18.731Z,68.79
2022-12-20T15:56:46.683Z,69.13
2022-12-20T15:59:48.952Z,69.31
2022-12-20T16:02:02.991Z,69.22
2022-12-20T16:04:31.197Z,68.92
2022-12-20T16:06:59.215Z,69.18
2022-12-20T16:09:27.188Z,69.04
2022-12-20T16:11:55.815Z,69.21
2022-12-20T16:14:24.175Z,69.05
2022-12-20T16:16:52.849Z,69.05
2022-12-20T16:19:20.835Z,69.36
2022-12-20T16:21:50.990Z,69.19
2022-12-20T16:24:21.558Z,69.17
2022-12-20T16:26:49.921Z,69.05
2022-12-20T16:29:17.913Z,69.34
2022-12-20T16:31:46.239Z,69.55
2022-12-20T16:34:18.716Z,69.39
2022-12-20T16:36:47.129Z,69.20
2022-12-20T16:39:15.165Z,69.46
2022-12-20T16:41:44.529Z,69.39
2022-12-20T16:44:16.623Z,69.34
2022-12-20T16:46:45.857Z,69.28
2022-12-20T16:49:20.025Z,69.27
2022-12-20T16:51:49.827Z,69.45
2022-12-20T16:54:23.128Z,69.16
2022-12-20T16:56:58.316Z,68.97
2022-12-20T16:59:28.294Z,69.26
2022-12-20T17:01:57.490Z,69.17
2022-12-20T17:04:26.917Z,69.21
2022-12-20T17:06:55.126Z,69.26
2022-12-20T17:12:15.650Z,69.01
2022-12-20T17:14:44.097Z,69.07
2022-12-20T17:17:12.403Z,68.95
2022-12-20T17:19:40.501Z,69.02
2022-12-20T17:22:24.750Z,69.01
2022-12-20T17:24:52.818Z,68.68
2022-12-20T17:27:21.012Z,68.92
2022-12-20T17:29:50.847Z,68.64
2022-12-20T17:32:22.064Z,68.78
2022-12-20T17:34:50.483Z,68.84
2022-12-20T17:37:18.702Z,68.70
2022-12-20T17:39:46.743Z,68.77
2022-12-20T17:42:15.716Z,68.90
2022-12-20T17:44:44.267Z,68.95
2022-12-20T17:47:12.399Z,68.80
2022-12-20T17:49:40.407Z,68.87
2022-12-20T17:52:15.636Z,68.84
2022-12-20T17:54:43.990Z,68.96
2022-12-20T17:57:16.009Z,68.99
2022-12-20T17:59:44.410Z,68.78
2022-12-20T18:02:22.188Z,68.81
2022-12-20T18:04:51.668Z,68.99
2022-12-20T18:07:19.870Z,69.14
2022-12-20T18:09:48.751Z,69.18
2022-12-20T18:12:18.069Z,69.08
2022-12-20T18:14:48.981Z,68.78
2022-12-20T18:17:17.742Z,68.74
2022-12-20T18:19:46.077Z,68.79
2022-12-20T18:22:14.947Z,69.13
2022-12-20T18:24:42.974Z,68.86
2022-12-20T18:27:10.963Z,68.85
2022-12-20T18:29:38.968Z,68.81
2022-12-20T18:32:07.136Z,68.66
2022-12-20T18:34:35.133Z,68.88
2022-12-20T18:37:05.797Z,68.57
2022-12-20T18:39:34.109Z,68.84
2022-12-20T18:42:02.221Z,68.76
2022-12-20T18:44:31.102Z,69.07
2022-12-20T18:46:59.213Z,69.07
2022-12-20T18:49:27.665Z,68.98
2022-12-20T18:51:58.695Z,68.95
2022-12-20T18:54:26.867Z,69.00
2022-12-20T18:56:57.519Z,69.19
2022-12-20T18:59:25.597Z,69.05
2022-12-20T19:01:53.669Z,68.85
2022-12-20T19:04:24.811Z,68.85
2022-12-20T19:06:53.777Z,68.85
2022-12-20T19:09:23.008Z,68.85
2022-12-20T19:11:56.687Z,68.90
2022-12-20T19:14:25.968Z,68.50
2022-12-20T19:16:54.020Z,68.45
2022-12-20T19:19:22.469Z,68.39
2022-12-20T19:21:50.508Z,68.32
2022-12-20T19:24:18.647Z,68.47
2022-12-20T19:26:46.784Z,68.40
2022-12-20T19:29:14.800Z,68.66
2022-12-20T19:31:42.892Z,68.53
2022-12-20T19:34:12.946Z,68.53
2022-12-20T19:36:43.496Z,68.58
2022-12-20T19:39:30.582Z,68.57
2022-12-20T19:42:22.827Z,68.53
2022-12-20T19:44:47.774Z,68.43
2022-12-20T19:47:15.764Z,68.34
2022-12-20T19:49:43.775Z,68.46
2022-12-20T19:52:12.243Z,68.61
2022-12-20T19:54:40.299Z,68.72
2022-12-20T19:57:08.287Z,68.78
2022-12-20T19:59:36.303Z,68.36
2022-12-20T20:02:05.462Z,68.37
2022-12-20T20:04:36.808Z,68.53
2022-12-20T20:07:05.015Z,68.35
2022-12-20T20:09:33.336Z,68.19
2022-12-20T20:12:01.769Z,68.22
2022-12-20T20:14:29.732Z,68.27
2022-12-20T20:16:57.718Z,68.21
2022-12-20T20:19:25.743Z,68.25
2022-12-20T20:21:54.470Z,68.32
2022-12-20T20:24:22.442Z,68.06
2022-12-20T20:26:50.434Z,68.27
2022-12-20T20:29:18.474Z,68.19
2022-12-20T20:31:46.555Z,67.98
2022-12-20T20:34:14.805Z,68.05
2022-12-20T20:36:42.786Z,67.97
2022-12-20T20:39:10.834Z,68.07
2022-12-20T20:41:38.830Z,68.09
2022-12-20T20:44:06.815Z,68.09
2022-12-20T20:46:34.882Z,67.72
2022-12-20T20:49:03.285Z,67.90
2022-12-20T20:51:31.277Z,67.79
2022-12-20T20:53:59.235Z,67.86
2022-12-20T20:56:27.267Z,67.82
2022-12-20T20:59:02.618Z,67.91
2022-12-20T21:01:34.269Z,67.84
2022-12-20T21:04:02.759Z,67.78
2022-12-20T21:06:40.990Z,67.81
2022-12-20T21:09:10.047Z,67.69
2022-12-20T21:11:38.313Z,67.82
2022-12-20T21:14:06.847Z,67.90
2022-12-20T21:16:35.053Z,67.83
2022-12-20T21:19:03.245Z,67.86
2022-12-20T21:21:31.346Z,67.76
2022-12-20T21:23:59.337Z,67.77
2022-12-20T21:26:27.425Z,67.83
2022-12-20T21:29:00.161Z,67.80
2022-12-20T21:31:28.800Z,67.78
2022-12-20T21:33:57.702Z,67.83
2022-12-20T21:36:26.271Z,67.88
2022-12-20T21:38:56.421Z,68.15
2022-12-20T21:41:28.699Z,68.00
2022-12-20T21:43:58.785Z,67.72
2022-12-20T21:46:29.208Z,67.66
2022-12-20T21:48:58.792Z,67.60
2022-12-20T21:51:28.690Z,67.61
2022-12-20T21:53:59.137Z,67.60
2022-12-20T21:56:29.462Z,67.61
2022-12-20T21:58:57.972Z,67.37
2022-12-20T22:01:28.080Z,67.50
2022-12-20T22:04:01.925Z,67.37
2022-12-20T22:06:31.708Z,67.38
2022-12-20T22:09:01.173Z,67.16
2022-12-20T22:11:29.160Z,67.27
2022-12-20T22:13:58.737Z,67.35
2022-12-20T22:16:30.980Z,67.11
2022-12-20T22:19:00.010Z,67.25
2022-12-20T22:21:30.951Z,67.25
2022-12-20T22:24:00.468Z,67.30
2022-12-20T22:26:31.751Z,67.48
2022-12-20T22:29:02.869Z,67.32
2022-12-20T22:31:31.729Z,67.40
2022-12-20T22:34:01.034Z,67.53
2022-12-20T22:36:29.169Z,67.45
2022-12-20T22:38:57.943Z,67.37
2022-12-20T22:41:29.211Z,67.40
2022-12-20T22:43:59.435Z,67.40
2022-12-20T22:49:18.317Z,67.21
2022-12-20T22:51:57.676Z,67.29
2022-12-20T22:54:35.122Z,67.23
2022-12-20T22:57:03.635Z,67.33
2022-12-20T22:59:32.659Z,67.43
2022-12-20T23:02:00.716Z,67.25
2022-12-20T23:04:28.911Z,67.34
2022-12-20T23:06:56.894Z,67.06
2022-12-20T23:09:25.563Z,66.74
2022-12-20T23:12:12.275Z,66.69
2022-12-20T23:15:03.965Z,66.58
2022-12-20T23:17:33.526Z,66.61
2022-12-20T23:20:19.790Z,66.76
2022-12-20T23:22:47.729Z,66.58
2022-12-20T23:25:19.874Z,66.79
2022-12-20T23:27:49.523Z,66.55
2022-12-20T23:30:21.494Z,66.68
2022-12-20T23:32:49.748Z,67.04
2022-12-20T23:35:20.264Z,66.84
2022-12-20T23:37:48.621Z,66.99
2022-12-20T23:40:17.570Z,66.77
2022-12-20T23:42:45.809Z,66.77
2022-12-20T23:45:13.885Z,66.86
2022-12-20T23:47:41.823Z,66.94
2022-12-20T23:50:10.214Z,66.90
2022-12-20T23:52:38.207Z,66.89
2022-12-20T23:55:06.460Z,66.81
2022-12-20T23:57:34.405Z,66.84
